createdAt,value
2017-09-15T00:00:17.762Z,0
2017-09-15T00:01:23.157Z,0
2017-09-15T00:02:29.833Z,0
2017-09-15T00:03:39.108Z,0
2017-09-15T00:04:47.158Z,0
2017-09-15T00:05:56.681Z,0
2017-09-15T00:07:04.115Z,0
2017-09-15T00:08:14.638Z,0
2017-09-15T00:09:26.159Z,0
2017-09-15T00:10:36.607Z,0
2017-09-15T00:11:41.197Z,0
2017-09-15T00:12:46.427Z,0
2017-09-15T00:13:53.162Z,0
2017-09-15T00:14:58.220Z,0
2017-09-15T00:16:04.617Z,0
2017-09-15T00:17:11.677Z,0
2017-09-15T00:18:23.117Z,0
2017-09-15T00:19:31.162Z,0
2017-09-15T00:20:39.107Z,0
2017-09-15T00:21:44.282Z,0
2017-09-15T00:22:51.742Z,0
2017-09-15T00:24:00.608Z,0
2017-09-15T00:25:08.261Z,0
2017-09-15T00:26:16.336Z,0
2017-09-15T00:27:24.681Z,0
2017-09-15T00:28:29.876Z,0
2017-09-15T00:29:37.113Z,0
2017-09-15T00:30:42.234Z,0
2017-09-15T00:31:48.607Z,0
2017-09-15T00:32:54.108Z,0
2017-09-15T00:34:02.607Z,0
2017-09-15T00:35:09.697Z,0
2017-09-15T00:36:17.191Z,0
2017-09-15T00:37:24.608Z,0
2017-09-15T00:38:29.613Z,0
2017-09-15T00:39:35.166Z,0
2017-09-15T00:40:41.640Z,0
2017-09-15T00:41:45.499Z,0
2017-09-15T00:42:52.107Z,0
2017-09-15T00:43:58.036Z,0
2017-09-15T00:45:03.654Z,0
2017-09-15T00:46:11.605Z,0
2017-09-15T00:47:15.781Z,0
2017-09-15T00:48:22.280Z,0
2017-09-15T00:49:30.812Z,0
2017-09-15T00:50:36.743Z,0
2017-09-15T00:51:45.732Z,0
2017-09-15T00:52:51.159Z,0
2017-09-15T00:53:56.168Z,0
2017-09-15T00:55:02.242Z,0
2017-09-15T00:56:04.604Z,0
2017-09-15T00:57:09.115Z,0
2017-09-15T00:58:15.078Z,0
2017-09-15T00:59:19.015Z,0
2017-09-15T01:00:20.934Z,0
2017-09-15T01:01:22.590Z,0
2017-09-15T01:02:25.408Z,0
2017-09-15T01:03:29.192Z,0
2017-09-15T01:04:33.602Z,0
2017-09-15T01:05:35.755Z,0
2017-09-15T01:06:37.304Z,0
2017-09-15T01:07:39.818Z,0
2017-09-15T01:08:42.698Z,0
2017-09-15T01:09:46.111Z,0
2017-09-15T01:10:47.616Z,0
2017-09-15T01:11:51.115Z,0
2017-09-15T01:12:53.141Z,0
2017-09-15T01:13:54.989Z,0
2017-09-15T01:14:57.196Z,0
2017-09-15T01:15:59.810Z,0
2017-09-15T01:17:02.901Z,0
2017-09-15T01:18:06.249Z,0
2017-09-15T01:19:09.224Z,0
2017-09-15T01:20:13.216Z,0
2017-09-15T01:21:17.275Z,0
2017-09-15T01:22:21.611Z,0
2017-09-15T01:23:25.472Z,0
2017-09-15T01:24:28.768Z,0
2017-09-15T01:25:30.421Z,0
2017-09-15T01:26:34.210Z,0
2017-09-15T01:27:37.438Z,0
2017-09-15T01:28:39.611Z,0
2017-09-15T01:29:41.434Z,0
2017-09-15T01:30:43.778Z,0
2017-09-15T01:31:46.790Z,0
2017-09-15T01:32:49.832Z,0
2017-09-15T01:33:51.946Z,0
2017-09-15T01:34:53.602Z,0
2017-09-15T01:35:55.252Z,0
2017-09-15T01:36:58.292Z,0
2017-09-15T01:38:01.488Z,0
2017-09-15T01:39:03.928Z,0
2017-09-15T01:40:07.184Z,0
2017-09-15T01:41:10.781Z,0
2017-09-15T01:42:15.171Z,0
2017-09-15T01:43:16.825Z,0
2017-09-15T01:44:19.778Z,0
2017-09-15T01:45:23.111Z,0
2017-09-15T01:46:26.012Z,0
2017-09-15T01:47:29.460Z,0
2017-09-15T01:48:32.607Z,0
2017-09-15T01:49:35.774Z,0
2017-09-15T01:50:38.246Z,0
2017-09-15T01:51:39.909Z,0
2017-09-15T01:52:42.256Z,0
2017-09-15T01:53:45.616Z,0
2017-09-15T01:54:47.261Z,0
2017-09-15T01:55:49.483Z,0
2017-09-15T02:01:49.821Z,0
2017-09-15T02:02:52.414Z,0
2017-09-15T02:03:54.991Z,0
2017-09-15T02:04:57.742Z,0
2017-09-15T02:06:00.813Z,0
2017-09-15T02:07:03.902Z,0
2017-09-15T02:08:07.275Z,0
2017-09-15T02:09:10.383Z,0
2017-09-15T02:10:14.285Z,0
2017-09-15T02:11:18.400Z,0
2017-09-15T02:12:22.429Z,0
2017-09-15T02:13:25.856Z,0
2017-09-15T02:14:28.998Z,0
2017-09-15T02:15:32.137Z,0
2017-09-15T02:16:35.820Z,0
2017-09-15T02:17:37.469Z,0
2017-09-15T02:18:39.581Z,0
2017-09-15T02:19:44.319Z,0
2017-09-15T02:20:47.362Z,0
2017-09-15T02:21:51.279Z,0
2017-09-15T02:22:53.581Z,0
2017-09-15T02:23:56.480Z,0
2017-09-15T02:24:59.893Z,0
2017-09-15T02:26:02.943Z,0
2017-09-15T02:27:06.199Z,0
2017-09-15T02:28:10.433Z,0
2017-09-15T02:29:15.731Z,0
2017-09-15T02:30:18.163Z,0
2017-09-15T02:31:21.232Z,0
2017-09-15T02:32:24.458Z,0
2017-09-15T02:33:29.732Z,0
2017-09-15T02:34:32.810Z,0
2017-09-15T02:35:36.767Z,0
2017-09-15T02:36:39.803Z,0
2017-09-15T02:37:42.122Z,0
2017-09-15T02:38:45.848Z,0
2017-09-15T02:39:49.857Z,0
2017-09-15T02:40:53.232Z,0
2017-09-15T02:41:56.931Z,0
2017-09-15T02:43:01.787Z,0
2017-09-15T02:44:04.314Z,0
2017-09-15T02:45:06.723Z,0
2017-09-15T02:46:10.929Z,0
2017-09-15T02:47:15.126Z,0
2017-09-15T02:48:17.531Z,0
2017-09-15T02:49:19.884Z,0
2017-09-15T02:50:23.962Z,0
2017-09-15T02:51:27.601Z,0
2017-09-15T02:52:31.338Z,0
2017-09-15T02:53:34.338Z,0
2017-09-15T02:54:37.231Z,0
2017-09-15T02:55:40.810Z,0
2017-09-15T02:56:44.733Z,0
2017-09-15T02:57:46.999Z,0
2017-09-15T02:58:50.350Z,0
2017-09-15T02:59:54.789Z,0
2017-09-15T03:00:57.908Z,0
2017-09-15T03:02:00.387Z,0
2017-09-15T03:03:03.360Z,0
2017-09-15T03:04:05.754Z,0
2017-09-15T03:05:11.732Z,0
2017-09-15T03:06:14.418Z,0
2017-09-15T03:07:18.469Z,0
2017-09-15T03:08:20.110Z,0
2017-09-15T03:09:23.326Z,0
2017-09-15T03:10:26.737Z,0
2017-09-15T03:11:27.837Z,0
2017-09-15T03:12:32.459Z,0
2017-09-15T03:13:35.331Z,0
2017-09-15T03:14:37.735Z,0
2017-09-15T03:15:40.788Z,0
2017-09-15T03:16:44.920Z,0
2017-09-15T03:17:46.570Z,0
2017-09-15T03:18:49.823Z,0
2017-09-15T03:19:52.807Z,0
2017-09-15T03:20:55.969Z,0
2017-09-15T03:21:59.104Z,0
2017-09-15T03:23:02.307Z,0
2017-09-15T03:24:05.738Z,0
2017-09-15T03:25:08.957Z,0
2017-09-15T03:26:13.073Z,0
2017-09-15T03:27:16.031Z,0
2017-09-15T03:28:20.843Z,0
2017-09-15T03:29:25.039Z,0
2017-09-15T03:30:27.342Z,0
2017-09-15T03:31:29.572Z,0
2017-09-15T03:32:31.900Z,0
2017-09-15T03:33:38.734Z,0
2017-09-15T03:34:40.035Z,0
2017-09-15T03:35:44.892Z,0
2017-09-15T03:36:47.247Z,0
2017-09-15T03:37:48.898Z,0
2017-09-15T03:38:51.291Z,0
2017-09-15T03:39:55.235Z,0
2017-09-15T03:40:55.998Z,0
2017-09-15T03:41:57.649Z,0
2017-09-15T03:42:59.804Z,0
2017-09-15T03:44:03.931Z,0
2017-09-15T03:45:08.290Z,0
2017-09-15T03:46:12.161Z,0
2017-09-15T03:47:14.726Z,0
2017-09-15T03:48:17.237Z,0
2017-09-15T03:49:20.837Z,0
2017-09-15T03:50:23.306Z,0
2017-09-15T03:51:26.666Z,0
2017-09-15T03:52:29.262Z,0
2017-09-15T03:53:32.012Z,0
2017-09-15T03:54:35.352Z,0
2017-09-15T03:55:38.453Z,0
2017-09-15T03:56:42.436Z,0
2017-09-15T03:57:46.516Z,0
2017-09-15T03:58:49.673Z,0
2017-09-15T03:59:52.739Z,0
2017-09-15T04:00:57.738Z,0
2017-09-15T04:02:00.742Z,0
2017-09-15T04:03:04.125Z,0
2017-09-15T04:04:06.808Z,0
2017-09-15T04:05:10.990Z,0
2017-09-15T04:06:13.856Z,0
2017-09-15T04:07:16.114Z,0
2017-09-15T04:08:18.555Z,0
2017-09-15T04:09:22.447Z,0
2017-09-15T04:10:25.906Z,0
2017-09-15T04:11:28.856Z,0
2017-09-15T04:12:31.343Z,0
2017-09-15T04:13:33.953Z,0
2017-09-15T04:14:37.561Z,0
2017-09-15T04:15:41.025Z,0
2017-09-15T04:16:44.012Z,0
2017-09-15T04:17:46.398Z,0
2017-09-15T04:18:48.807Z,0
2017-09-15T04:19:54.884Z,0
2017-09-15T04:20:58.802Z,0
2017-09-15T04:22:02.008Z,0
2017-09-15T04:23:05.648Z,0
2017-09-15T04:24:09.057Z,0
2017-09-15T04:25:11.654Z,0
2017-09-15T04:26:15.741Z,0
2017-09-15T04:27:16.964Z,0
2017-09-15T04:28:18.614Z,0
2017-09-15T04:29:23.305Z,0
2017-09-15T04:30:27.242Z,0
2017-09-15T04:31:28.595Z,4
2017-09-15T04:32:33.647Z,0
2017-09-15T04:33:36.583Z,4
2017-09-15T04:34:43.353Z,4
2017-09-15T04:35:49.355Z,4
2017-09-15T04:36:52.560Z,8
2017-09-15T04:37:54.970Z,12
2017-09-15T04:38:59.847Z,8
2017-09-15T04:40:03.743Z,8
2017-09-15T04:41:08.539Z,12
2017-09-15T04:42:14.239Z,12
2017-09-15T04:43:15.524Z,16
2017-09-15T04:44:19.240Z,20
2017-09-15T04:45:22.787Z,20
2017-09-15T04:46:25.217Z,28
2017-09-15T04:47:26.871Z,40
2017-09-15T04:48:30.299Z,44
2017-09-15T04:49:33.463Z,44
2017-09-15T04:50:37.465Z,48
2017-09-15T04:51:39.117Z,60
2017-09-15T04:52:41.705Z,60
2017-09-15T04:53:43.860Z,60
2017-09-15T04:54:47.941Z,60
2017-09-15T04:55:51.576Z,60
2017-09-15T04:56:53.815Z,72
2017-09-15T04:57:57.767Z,100
2017-09-15T04:59:01.244Z,152
2017-09-15T05:00:04.799Z,228
2017-09-15T05:01:08.916Z,300
2017-09-15T05:02:12.012Z,372
2017-09-15T05:03:13.683Z,428
2017-09-15T05:04:20.240Z,472
2017-09-15T05:05:25.380Z,456
2017-09-15T05:06:28.003Z,380
2017-09-15T05:07:32.288Z,360
2017-09-15T05:08:35.410Z,368
2017-09-15T05:09:37.077Z,408
2017-09-15T05:10:39.499Z,540
2017-09-15T05:11:42.608Z,608
2017-09-15T05:12:44.853Z,648
2017-09-15T05:13:49.863Z,632
2017-09-15T05:14:54.741Z,544
2017-09-15T05:15:56.860Z,480
2017-09-15T05:16:59.893Z,488
2017-09-15T05:18:02.245Z,600
2017-09-15T05:19:05.203Z,716
2017-09-15T05:20:08.334Z,812
2017-09-15T05:21:10.562Z,800
2017-09-15T05:22:13.365Z,660
2017-09-15T05:23:16.544Z,792
2017-09-15T05:24:19.561Z,908
2017-09-15T05:25:23.246Z,940
2017-09-15T05:26:25.321Z,844
2017-09-15T05:27:29.533Z,680
2017-09-15T05:28:32.675Z,556
2017-09-15T05:29:34.965Z,516
2017-09-15T05:30:37.560Z,468
2017-09-15T05:31:41.567Z,464
2017-09-15T05:32:46.245Z,572
2017-09-15T05:33:49.749Z,744
2017-09-15T05:34:52.548Z,984
2017-09-15T05:35:55.908Z,1024
2017-09-15T05:37:01.382Z,996
2017-09-15T05:38:09.251Z,1028
2017-09-15T05:39:11.743Z,984
2017-09-15T05:40:15.778Z,920
2017-09-15T05:41:18.181Z,768
2017-09-15T05:42:19.828Z,832
2017-09-15T05:43:24.812Z,876
2017-09-15T05:44:27.004Z,1228
2017-09-15T05:45:30.542Z,1772
2017-09-15T05:46:32.580Z,2060
2017-09-15T05:47:35.824Z,2112
2017-09-15T05:48:39.852Z,1820
2017-09-15T05:49:42.096Z,1860
2017-09-15T05:50:46.570Z,2496
2017-09-15T05:51:48.226Z,3388
2017-09-15T05:52:50.601Z,3924
2017-09-15T05:53:55.352Z,3664
2017-09-15T05:54:59.806Z,3260
2017-09-15T06:01:23.236Z,2628
2017-09-15T06:02:25.581Z,2792
2017-09-15T06:03:28.775Z,3120
2017-09-15T06:04:30.462Z,2856
2017-09-15T06:05:33.437Z,2040
2017-09-15T06:06:37.386Z,1772
2017-09-15T06:07:40.975Z,1548
2017-09-15T06:08:44.017Z,1212
2017-09-15T06:09:48.925Z,1000
2017-09-15T06:10:51.776Z,992
2017-09-15T06:11:55.882Z,1180
2017-09-15T06:12:57.547Z,1268
2017-09-15T06:14:01.404Z,1440
2017-09-15T06:15:04.659Z,1872
2017-09-15T06:16:06.924Z,2236
2017-09-15T06:17:10.333Z,2396
2017-09-15T06:18:13.874Z,2400
2017-09-15T06:19:15.532Z,2656
2017-09-15T06:20:19.555Z,3072
2017-09-15T06:21:23.725Z,3084
2017-09-15T06:22:26.144Z,3468
2017-09-15T06:23:27.831Z,3136
2017-09-15T06:24:31.939Z,3104
2017-09-15T06:25:37.508Z,3136
2017-09-15T06:26:41.514Z,3544
2017-09-15T06:27:45.026Z,2876
2017-09-15T06:28:48.013Z,2596
2017-09-15T06:29:50.849Z,3256
2017-09-15T06:30:55.404Z,4352
2017-09-15T06:31:57.869Z,5156
2017-09-15T06:32:59.534Z,5724
2017-09-15T06:34:02.782Z,6884
2017-09-15T06:35:04.436Z,6692
2017-09-15T06:36:08.272Z,5696
2017-09-15T06:37:12.335Z,5316
2017-09-15T06:38:14.005Z,5480
2017-09-15T06:39:18.729Z,6000
2017-09-15T06:40:20.379Z,6584
2017-09-15T06:41:22.971Z,6788
2017-09-15T06:42:26.228Z,6300
2017-09-15T06:43:28.826Z,6336
2017-09-15T06:44:35.227Z,6760
2017-09-15T06:45:40.871Z,7100
2017-09-15T06:46:44.886Z,8956
2017-09-15T06:47:49.422Z,9932
2017-09-15T06:48:52.442Z,9296
2017-09-15T06:49:57.450Z,8228
2017-09-15T06:51:01.027Z,7444
2017-09-15T06:52:04.095Z,7192
2017-09-15T06:53:07.011Z,7452
2017-09-15T06:54:10.801Z,7816
2017-09-15T06:55:13.343Z,8792
2017-09-15T06:56:18.228Z,9496
2017-09-15T06:57:23.736Z,9928
2017-09-15T06:58:26.126Z,10308
2017-09-15T06:59:27.809Z,9220
2017-09-15T07:00:30.684Z,7560
2017-09-15T07:01:33.867Z,7120
2017-09-15T07:02:36.036Z,6624
2017-09-15T07:03:38.790Z,5804
2017-09-15T07:04:42.032Z,5256
2017-09-15T07:05:47.846Z,5328
2017-09-15T07:06:52.050Z,5360
2017-09-15T07:07:54.244Z,4960
2017-09-15T07:08:56.803Z,5104
2017-09-15T07:10:01.450Z,6264
2017-09-15T07:11:03.802Z,6216
2017-09-15T07:12:06.889Z,7040
2017-09-15T07:13:10.950Z,8632
2017-09-15T07:14:14.232Z,7184
2017-09-15T07:15:15.915Z,5872
2017-09-15T07:16:19.284Z,5928
2017-09-15T07:17:21.516Z,4744
2017-09-15T07:18:24.271Z,3984
2017-09-15T07:19:28.028Z,4180
2017-09-15T07:20:31.333Z,4208
2017-09-15T07:21:33.645Z,4192
2017-09-15T07:22:35.952Z,3860
2017-09-15T07:23:40.175Z,3760
2017-09-15T07:24:43.948Z,4072
2017-09-15T07:25:46.598Z,4536
2017-09-15T07:26:49.689Z,4504
2017-09-15T07:27:53.467Z,4440
2017-09-15T07:28:55.133Z,4764
2017-09-15T07:29:58.853Z,5164
2017-09-15T07:31:02.887Z,5088
2017-09-15T07:32:07.988Z,5268
2017-09-15T07:33:11.065Z,5456
2017-09-15T07:34:15.796Z,5672
2017-09-15T07:35:18.114Z,6120
2017-09-15T07:36:22.735Z,6292
2017-09-15T07:37:24.281Z,5424
2017-09-15T07:38:25.934Z,4476
2017-09-15T07:39:29.444Z,4580
2017-09-15T07:40:31.832Z,5476
2017-09-15T07:41:36.602Z,6376
2017-09-15T07:42:39.771Z,7008
2017-09-15T07:43:41.425Z,7152
2017-09-15T07:44:46.354Z,7144
2017-09-15T07:45:49.537Z,6980
2017-09-15T07:46:53.733Z,7092
2017-09-15T07:47:54.916Z,6772
2017-09-15T07:48:58.268Z,6736
2017-09-15T07:50:00.023Z,6556
2017-09-15T07:51:01.685Z,6540
2017-09-15T07:52:04.741Z,6680
2017-09-15T07:53:06.322Z,6616
2017-09-15T07:54:11.819Z,5452
2017-09-15T07:55:13.471Z,5536
2017-09-15T07:56:15.129Z,6084
2017-09-15T07:57:18.795Z,6012
2017-09-15T07:58:21.368Z,6332
2017-09-15T07:59:23.736Z,7324
2017-09-15T08:00:26.585Z,7992
2017-09-15T08:01:29.676Z,9640
2017-09-15T08:02:32.739Z,11412
2017-09-15T08:03:35.743Z,13396
2017-09-15T08:04:39.058Z,15416
2017-09-15T08:05:41.398Z,18848
2017-09-15T08:06:44.419Z,21632
2017-09-15T08:07:48.850Z,24192
2017-09-15T08:08:51.531Z,23904
2017-09-15T08:09:55.797Z,22144
2017-09-15T08:10:58.318Z,19104
2017-09-15T08:12:01.814Z,17824
2017-09-15T08:13:04.390Z,15964
2017-09-15T08:14:07.456Z,13388
2017-09-15T08:15:09.124Z,14164
2017-09-15T08:16:13.775Z,18816
2017-09-15T08:17:14.604Z,21024
2017-09-15T08:18:19.316Z,26880
2017-09-15T08:19:20.996Z,38304
2017-09-15T08:20:23.490Z,45024
2017-09-15T08:21:25.864Z,47168
2017-09-15T08:22:28.118Z,48608
2017-09-15T08:23:31.531Z,57408
2017-09-15T08:24:34.063Z,125440
2017-09-15T08:25:40.625Z,51872
2017-09-15T08:26:44.240Z,51936
2017-09-15T08:27:46.811Z,55872
2017-09-15T08:28:49.937Z,39712
2017-09-15T08:29:53.234Z,47296
2017-09-15T08:30:57.483Z,48640
2017-09-15T08:32:01.307Z,36992
2017-09-15T08:33:02.975Z,35424
2017-09-15T08:34:05.918Z,50688
2017-09-15T08:35:09.830Z,54016
2017-09-15T08:36:14.397Z,39296
2017-09-15T08:37:18.790Z,32384
2017-09-15T08:38:21.329Z,35200
2017-09-15T08:39:24.356Z,44096
2017-09-15T08:40:26.926Z,46624
2017-09-15T08:41:31.007Z,39200
2017-09-15T08:42:32.689Z,44992
2017-09-15T08:43:34.990Z,50944
2017-09-15T08:44:38.383Z,106080
2017-09-15T08:45:43.245Z,56960
2017-09-15T08:46:44.913Z,74464
2017-09-15T08:47:47.389Z,34944
2017-09-15T08:48:50.806Z,38304
2017-09-15T08:49:55.310Z,41184
2017-09-15T08:50:57.589Z,44512
2017-09-15T08:52:00.816Z,42432
2017-09-15T08:53:03.882Z,47648
2017-09-15T08:54:07.838Z,44096
2017-09-15T08:55:09.518Z,45152
2017-09-15T08:56:12.954Z,44192
2017-09-15T08:57:15.539Z,42016
2017-09-15T08:58:19.394Z,34144
2017-09-15T08:59:24.491Z,28864
2017-09-15T09:00:27.945Z,25184
2017-09-15T09:01:30.379Z,24448
2017-09-15T09:02:32.950Z,20416
2017-09-15T09:03:35.582Z,16780
2017-09-15T09:04:37.819Z,16844
2017-09-15T09:05:41.907Z,16416
2017-09-15T09:06:43.576Z,12704
2017-09-15T09:07:47.581Z,12396
2017-09-15T09:08:50.731Z,18208
2017-09-15T09:09:53.251Z,25024
2017-09-15T09:10:55.897Z,30784
2017-09-15T09:11:59.566Z,32960
2017-09-15T09:13:02.812Z,41760
2017-09-15T09:14:07.439Z,41312
2017-09-15T09:15:09.983Z,47840
2017-09-15T09:16:12.509Z,44992
2017-09-15T09:17:15.901Z,37856
2017-09-15T09:18:20.022Z,44576
2017-09-15T09:19:24.323Z,43200
2017-09-15T09:20:26.584Z,43680
2017-09-15T09:21:31.376Z,43904
2017-09-15T09:22:34.824Z,39648
2017-09-15T09:23:39.458Z,35552
2017-09-15T09:24:46.251Z,32640
2017-09-15T09:25:49.250Z,31584
2017-09-15T09:26:51.577Z,29824
2017-09-15T09:27:53.918Z,28640
2017-09-15T09:28:56.252Z,29728
2017-09-15T09:29:58.864Z,29888
2017-09-15T09:31:02.375Z,28992
2017-09-15T09:32:06.444Z,25824
2017-09-15T09:33:08.756Z,23936
2017-09-15T09:34:10.165Z,21728
2017-09-15T09:35:15.445Z,20128
2017-09-15T09:36:18.762Z,19168
2017-09-15T09:37:21.753Z,16720
2017-09-15T09:38:24.214Z,21376
2017-09-15T09:39:26.643Z,31328
2017-09-15T09:40:29.097Z,36384
2017-09-15T09:41:31.659Z,40128
2017-09-15T09:42:35.001Z,35744
2017-09-15T09:43:37.351Z,30784
2017-09-15T09:44:40.256Z,24608
2017-09-15T09:45:44.269Z,20416
2017-09-15T09:46:47.755Z,26304
2017-09-15T09:47:49.330Z,59552
2017-09-15T09:48:52.396Z,40992
2017-09-15T09:49:54.837Z,29696
2017-09-15T09:50:57.013Z,22368
2017-09-15T09:52:00.309Z,25632
2017-09-15T09:53:03.145Z,32736
2017-09-15T09:54:06.217Z,36224
2017-09-15T09:55:10.260Z,35936
2017-09-15T10:01:06.815Z,38912
2017-09-15T10:02:10.175Z,41376
2017-09-15T10:03:13.277Z,36192
2017-09-15T10:04:15.838Z,32576
2017-09-15T10:05:18.960Z,27808
2017-09-15T10:06:22.505Z,23904
2017-09-15T10:07:25.924Z,22400
2017-09-15T10:08:29.104Z,22720
2017-09-15T10:09:42.715Z,23360
2017-09-15T10:10:46.523Z,22592
2017-09-15T10:11:49.771Z,19488
2017-09-15T10:12:53.582Z,16572
2017-09-15T10:13:58.360Z,14852
2017-09-15T10:15:02.715Z,12652
2017-09-15T10:16:05.215Z,10952
2017-09-15T10:17:06.874Z,12160
2017-09-15T10:18:11.831Z,14792
2017-09-15T10:19:14.717Z,15900
2017-09-15T10:20:18.890Z,15460
2017-09-15T10:21:22.776Z,14176
2017-09-15T10:22:24.362Z,13828
2017-09-15T10:23:26.567Z,14096
2017-09-15T10:24:28.234Z,13976
2017-09-15T10:25:30.635Z,14540
2017-09-15T10:26:32.315Z,15712
2017-09-15T10:27:36.245Z,16368
2017-09-15T10:28:38.752Z,16188
2017-09-15T10:29:42.021Z,15288
2017-09-15T10:30:46.610Z,15228
2017-09-15T10:31:49.578Z,16668
2017-09-15T10:32:53.657Z,18752
2017-09-15T10:33:55.329Z,19808
2017-09-15T10:34:59.343Z,20096
2017-09-15T10:36:02.464Z,20288
2017-09-15T10:37:05.109Z,20320
2017-09-15T10:38:08.276Z,20480
2017-09-15T10:39:08.962Z,20896
2017-09-15T10:40:12.273Z,21088
2017-09-15T10:41:15.940Z,20160
2017-09-15T10:42:19.346Z,17600
2017-09-15T10:43:21.976Z,15284
2017-09-15T10:44:27.280Z,14360
2017-09-15T10:45:28.086Z,15216
2017-09-15T10:46:32.175Z,17856
2017-09-15T10:47:33.840Z,21984
2017-09-15T10:48:38.831Z,24896
2017-09-15T10:49:40.487Z,25472
2017-09-15T10:50:43.740Z,25152
2017-09-15T10:51:46.947Z,23680
2017-09-15T10:52:51.454Z,22432
2017-09-15T10:53:53.847Z,23648
2017-09-15T10:54:58.010Z,24544
2017-09-15T10:55:59.670Z,23040
2017-09-15T10:57:03.579Z,21344
2017-09-15T10:58:06.505Z,20736
2017-09-15T10:59:11.423Z,21376
2017-09-15T11:00:13.087Z,21856
2017-09-15T11:01:16.917Z,21600
2017-09-15T11:02:19.184Z,21664
2017-09-15T11:03:24.993Z,23168
2017-09-15T11:04:29.614Z,24160
2017-09-15T11:05:32.577Z,23872
2017-09-15T11:06:34.835Z,25312
2017-09-15T11:07:39.495Z,28224
2017-09-15T11:08:44.878Z,29088
2017-09-15T11:09:50.366Z,29248
2017-09-15T11:10:54.066Z,30432
2017-09-15T11:11:58.781Z,31456
2017-09-15T11:12:59.741Z,31232
2017-09-15T11:14:02.949Z,28384
2017-09-15T11:15:05.920Z,25408
2017-09-15T11:16:10.005Z,22176
2017-09-15T11:17:12.393Z,20192
2017-09-15T11:18:14.567Z,19040
2017-09-15T11:19:17.842Z,18208
2017-09-15T11:20:20.048Z,17024
2017-09-15T11:21:23.141Z,16364
2017-09-15T11:22:25.506Z,18720
2017-09-15T11:23:27.864Z,24032
2017-09-15T11:24:32.356Z,27584
2017-09-15T11:25:41.286Z,27552
2017-09-15T11:26:42.833Z,26880
2017-09-15T11:27:45.981Z,26464
2017-09-15T11:28:50.249Z,25568
2017-09-15T11:29:53.360Z,25024
2017-09-15T11:30:55.786Z,24448
2017-09-15T11:32:00.292Z,24576
2017-09-15T11:33:01.919Z,25312
2017-09-15T11:34:04.408Z,28736
2017-09-15T11:35:07.880Z,28672
2017-09-15T11:36:11.967Z,27296
2017-09-15T11:37:15.557Z,26528
2017-09-15T11:38:19.579Z,27744
2017-09-15T11:39:21.763Z,31904
2017-09-15T11:40:26.288Z,37696
2017-09-15T11:41:27.871Z,34304
2017-09-15T11:42:31.530Z,34272
2017-09-15T11:43:34.343Z,33856
2017-09-15T11:44:36.854Z,33952
2017-09-15T11:45:39.788Z,33856
2017-09-15T11:46:40.861Z,33472
2017-09-15T11:47:43.940Z,32000
2017-09-15T11:48:47.290Z,31904
2017-09-15T11:49:50.478Z,31456
2017-09-15T11:50:52.149Z,31360
2017-09-15T11:51:54.396Z,31072
2017-09-15T11:52:57.834Z,30176
2017-09-15T11:54:00.078Z,28928
2017-09-15T11:55:02.163Z,27200
2017-09-15T11:56:05.292Z,23808
2017-09-15T11:57:07.112Z,19808
2017-09-15T11:58:11.315Z,16856
2017-09-15T11:59:13.861Z,15748
2017-09-15T12:00:17.851Z,15600
2017-09-15T12:01:25.388Z,21632
2017-09-15T12:02:27.057Z,29248
2017-09-15T12:03:28.762Z,35680
2017-09-15T12:04:30.436Z,34688
2017-09-15T12:05:32.597Z,46880
2017-09-15T12:06:34.298Z,42080
2017-09-15T12:07:37.954Z,39232
2017-09-15T12:08:42.078Z,38976
2017-09-15T12:09:44.957Z,37536
2017-09-15T12:10:47.157Z,35520
2017-09-15T12:11:49.468Z,34464
2017-09-15T12:12:51.852Z,35296
2017-09-15T12:13:55.058Z,35360
2017-09-15T12:14:56.807Z,35008
2017-09-15T12:15:59.393Z,35552
2017-09-15T12:17:02.017Z,32736
2017-09-15T12:18:15.176Z,31648
2017-09-15T12:19:19.907Z,31392
2017-09-15T12:20:21.635Z,31040
2017-09-15T12:21:24.873Z,31392
2017-09-15T12:22:27.779Z,31200
2017-09-15T12:23:30.078Z,27168
2017-09-15T12:24:31.743Z,25760
2017-09-15T12:25:33.390Z,28800
2017-09-15T12:26:36.046Z,27360
2017-09-15T12:27:39.167Z,34400
2017-09-15T12:28:40.840Z,35456
2017-09-15T12:29:43.299Z,38720
2017-09-15T12:30:45.083Z,40768
2017-09-15T12:31:47.589Z,37856
2017-09-15T12:32:50.799Z,36192
2017-09-15T12:33:53.362Z,35328
2017-09-15T12:34:57.378Z,34720
2017-09-15T12:36:01.517Z,32288
2017-09-15T12:37:03.781Z,32480
2017-09-15T12:38:09.886Z,32864
2017-09-15T12:39:12.078Z,29760
2017-09-15T12:40:14.572Z,29312
2017-09-15T12:41:17.952Z,29824
2017-09-15T12:42:19.629Z,29888
2017-09-15T12:43:21.656Z,28288
2017-09-15T12:44:23.889Z,28384
2017-09-15T12:45:26.083Z,28064
2017-09-15T12:46:28.987Z,27168
2017-09-15T12:47:31.509Z,26112
2017-09-15T12:48:36.200Z,25088
2017-09-15T12:49:39.906Z,24704
2017-09-15T12:50:43.075Z,24768
2017-09-15T12:51:45.409Z,25248
2017-09-15T12:52:48.535Z,27072
2017-09-15T12:53:51.978Z,32544
2017-09-15T12:54:57.446Z,34048
2017-09-15T12:56:01.961Z,33280
2017-09-15T12:57:04.929Z,34048
2017-09-15T12:58:07.153Z,32000
2017-09-15T12:59:10.271Z,31680
2017-09-15T13:00:14.559Z,34720
2017-09-15T13:01:17.654Z,35776
2017-09-15T13:02:20.135Z,36160
2017-09-15T13:03:23.007Z,36128
2017-09-15T13:04:26.369Z,37152
2017-09-15T13:05:30.304Z,36736
2017-09-15T13:06:32.041Z,33280
2017-09-15T13:07:33.714Z,31968
2017-09-15T13:08:36.117Z,31104
2017-09-15T13:09:40.467Z,29568
2017-09-15T13:10:43.032Z,26656
2017-09-15T13:11:46.003Z,23200
2017-09-15T13:12:49.444Z,20224
2017-09-15T13:13:53.502Z,20224
2017-09-15T13:14:56.354Z,33920
2017-09-15T13:15:59.929Z,36640
2017-09-15T13:17:01.599Z,43840
2017-09-15T13:18:03.270Z,38112
2017-09-15T13:19:05.904Z,36096
2017-09-15T13:20:12.658Z,34304
2017-09-15T13:21:14.922Z,31712
2017-09-15T13:22:18.310Z,31872
2017-09-15T13:23:20.756Z,33120
2017-09-15T13:24:24.812Z,33760
2017-09-15T13:25:27.238Z,34016
2017-09-15T13:26:29.578Z,34016
2017-09-15T13:27:33.084Z,33024
2017-09-15T13:28:35.363Z,30304
2017-09-15T13:29:39.458Z,27360
2017-09-15T13:30:43.311Z,25312
2017-09-15T13:31:45.081Z,22912
2017-09-15T13:32:49.630Z,20320
2017-09-15T13:33:53.415Z,16772
2017-09-15T13:34:55.812Z,12348
2017-09-15T13:35:57.543Z,8640
2017-09-15T13:37:00.115Z,6100
2017-09-15T13:38:03.403Z,4760
2017-09-15T13:39:05.066Z,4152
2017-09-15T13:40:06.741Z,3856
2017-09-15T13:41:10.822Z,3564
2017-09-15T13:42:14.322Z,3348
2017-09-15T13:43:16.409Z,3316
2017-09-15T13:44:19.161Z,3396
2017-09-15T13:45:20.836Z,3284
2017-09-15T13:46:23.858Z,2860
2017-09-15T13:47:26.288Z,2328
2017-09-15T13:48:29.170Z,1888
2017-09-15T13:49:31.343Z,1596
2017-09-15T13:50:34.037Z,1376
2017-09-15T13:51:38.822Z,1304
2017-09-15T13:52:40.432Z,1556
2017-09-15T13:53:42.716Z,2256
2017-09-15T13:54:45.004Z,3420
2017-09-15T13:55:48.111Z,4804
2017-09-15T14:01:56.331Z,13116
2017-09-15T14:03:00.089Z,13176
2017-09-15T14:04:03.288Z,12844
2017-09-15T14:05:07.135Z,12404
2017-09-15T14:06:09.860Z,11908
2017-09-15T14:07:13.687Z,11556
2017-09-15T14:08:17.401Z,10760
2017-09-15T14:09:19.719Z,9472
2017-09-15T14:10:22.928Z,8172
2017-09-15T14:11:25.703Z,7068
2017-09-15T14:12:28.810Z,6180
2017-09-15T14:13:31.811Z,5584
2017-09-15T14:14:34.246Z,5200
2017-09-15T14:15:37.408Z,4660
2017-09-15T14:16:39.858Z,4224
2017-09-15T14:17:42.199Z,3920
2017-09-15T14:18:45.026Z,3620
2017-09-15T14:19:47.945Z,3348
2017-09-15T14:20:51.790Z,3256
2017-09-15T14:21:54.264Z,3296
2017-09-15T14:22:56.522Z,3160
2017-09-15T14:24:00.799Z,2800
2017-09-15T14:25:02.464Z,2188
2017-09-15T14:26:05.716Z,2092
2017-09-15T14:27:09.660Z,2324
2017-09-15T14:28:13.280Z,2524
2017-09-15T14:29:16.730Z,2720
2017-09-15T14:30:20.765Z,2812
2017-09-15T14:31:23.946Z,2812
2017-09-15T14:32:26.915Z,2948
2017-09-15T14:33:29.783Z,3252
2017-09-15T14:34:35.202Z,3904
2017-09-15T14:35:38.933Z,6808
2017-09-15T14:36:41.381Z,10124
2017-09-15T14:37:46.339Z,14548
2017-09-15T14:38:49.259Z,19328
2017-09-15T14:39:51.790Z,24512
2017-09-15T14:40:54.864Z,27360
2017-09-15T14:41:56.526Z,29344